sensor_id;sensor_type;location;lat;lon;timestamp;pressure;altitude;pressure_sealevel;temperature;humidity
34506;BME280;20748;42.632;23.198;2023-05-14T00:00:27;92434.91;;;12.55;100.00
34506;BME280;20748;42.632;23.198;2023-05-14T00:02:59;92438.72;;;12.48;100.00
34506;BME280;20748;42.632;23.198;2023-05-14T00:05:32;92430.09;;;12.48;100.00
34506;BME280;20748;42.632;23.198;2023-05-14T00:08:04;92431.63;;;12.49;100.00
34506;BME280;20748;42.632;23.198;2023-05-14T00:10:37;92426.88;;;12.51;100.00
34506;BME280;20748;42.632;23.198;2023-05-14T00:13:10;92422.06;;;12.44;100.00
34506;BME280;20748;42.632;23.198;2023-05-14T00:15:42;92410.69;;;12.49;100.00
34506;BME280;20748;42.632;23.198;2023-05-14T00:18:15;92414.56;;;12.52;100.00
34506;BME280;20748;42.632;23.198;2023-05-14T00:20:47;92403.56;;;12.41;100.00
34506;BME280;20748;42.632;23.198;2023-05-14T00:23:22;92406.81;;;12.46;100.00
34506;BME280;20748;42.632;23.198;2023-05-14T00:25:55;92396.97;;;12.43;100.00
34506;BME280;20748;42.632;23.198;2023-05-14T00:28:28;92401.25;;;12.39;100.00
34506;BME280;20748;42.632;23.198;2023-05-14T00:31:00;92396.91;;;12.34;100.00
34506;BME280;20748;42.632;23.198;2023-05-14T00:33:33;92398.56;;;12.30;100.00
34506;BME280;20748;42.632;23.198;2023-05-14T00:36:06;92391.50;;;12.31;100.00
34506;BME280;20748;42.632;23.198;2023-05-14T00:38:38;92395.19;;;12.30;100.00
34506;BME280;20748;42.632;23.198;2023-05-14T00:41:12;92396.25;;;12.29;100.00
34506;BME280;20748;42.632;23.198;2023-05-14T00:43:46;92385.78;;;12.29;100.00
34506;BME280;20748;42.632;23.198;2023-05-14T00:46:18;92384.91;;;12.33;100.00
34506;BME280;20748;42.632;23.198;2023-05-14T00:48:51;92377.47;;;12.27;100.00
34506;BME280;20748;42.632;23.198;2023-05-14T00:51:24;92375.75;;;12.22;100.00
34506;BME280;20748;42.632;23.198;2023-05-14T00:53:56;92375.59;;;12.18;98.34
34506;BME280;20748;42.632;23.198;2023-05-14T00:56:29;92377.88;;;12.20;97.49
34506;BME280;20748;42.632;23.198;2023-05-14T00:59:02;92377.72;;;12.16;99.24
34506;BME280;20748;42.632;23.198;2023-05-14T01:01:35;92377.88;;;12.20;97.72
34506;BME280;20748;42.632;23.198;2023-05-14T01:04:09;92370.94;;;12.15;99.60
34506;BME280;20748;42.632;23.198;2023-05-14T01:06:49;92372.00;;;12.14;100.00
34506;BME280;20748;42.632;23.198;2023-05-14T01:09:30;92368.63;;;12.14;100.00
34506;BME280;20748;42.632;23.198;2023-05-14T01:12:09;92376.16;;;12.15;100.00
34506;BME280;20748;42.632;23.198;2023-05-14T01:14:53;92380.34;;;12.02;100.00
34506;BME280;20748;42.632;23.198;2023-05-14T01:17:27;92379.59;;;12.02;100.00
34506;BME280;20748;42.632;23.198;2023-05-14T01:20:01;92372.81;;;12.01;100.00
34506;BME280;20748;42.632;23.198;2023-05-14T01:22:34;92379.88;;;12.00;100.00
34506;BME280;20748;42.632;23.198;2023-05-14T01:25:08;92390.47;;;11.95;100.00
34506;BME280;20748;42.632;23.198;2023-05-14T01:27:48;92380.00;;;11.95;100.00
34506;BME280;20748;42.632;23.198;2023-05-14T01:30:27;92386.66;;;12.01;100.00
34506;BME280;20748;42.632;23.198;2023-05-14T01:33:02;92386.00;;;11.95;100.00
34506;BME280;20748;42.632;23.198;2023-05-14T01:35:37;92388.13;;;11.93;100.00
34506;BME280;20748;42.632;23.198;2023-05-14T01:38:13;92392.78;;;11.97;100.00
34506;BME280;20748;42.632;23.198;2023-05-14T01:40:46;92389.72;;;11.94;100.00
34506;BME280;20748;42.632;23.198;2023-05-14T01:43:19;92402.78;;;11.94;98.92
34506;BME280;20748;42.632;23.198;2023-05-14T01:45:52;92399.84;;;11.96;97.74
34506;BME280;20748;42.632;23.198;2023-05-14T01:48:26;92397.22;;;11.96;97.70
34506;BME280;20748;42.632;23.198;2023-05-14T01:51:01;92404.50;;;11.99;97.95
34506;BME280;20748;42.632;23.198;2023-05-14T01:53:34;92403.72;;;11.99;96.63
34506;BME280;20748;42.632;23.198;2023-05-14T01:56:06;92396.75;;;11.94;97.09
34506;BME280;20748;42.632;23.198;2023-05-14T01:58:38;92393.56;;;11.97;97.97
34506;BME280;20748;42.632;23.198;2023-05-14T02:01:11;92392.78;;;11.97;99.68
34506;BME280;20748;42.632;23.198;2023-05-14T02:03:43;92411.56;;;11.99;100.00
34506;BME280;20748;42.632;23.198;2023-05-14T02:06:15;92400.75;;;11.91;100.00
34506;BME280;20748;42.632;23.198;2023-05-14T02:08:48;92402.28;;;11.92;100.00
34506;BME280;20748;42.632;23.198;2023-05-14T02:11:21;92402.88;;;11.89;100.00
34506;BME280;20748;42.632;23.198;2023-05-14T02:13:53;92406.09;;;11.86;100.00
34506;BME280;20748;42.632;23.198;2023-05-14T02:16:26;92407.34;;;11.89;100.00
34506;BME280;20748;42.632;23.198;2023-05-14T02:18:58;92413.00;;;11.82;100.00
34506;BME280;20748;42.632;23.198;2023-05-14T02:21:31;92412.13;;;11.73;100.00
34506;BME280;20748;42.632;23.198;2023-05-14T02:24:04;92419.38;;;11.76;100.00
34506;BME280;20748;42.632;23.198;2023-05-14T02:26:36;92417.53;;;11.76;100.00
34506;BME280;20748;42.632;23.198;2023-05-14T02:29:08;92421.31;;;11.70;100.00
34506;BME280;20748;42.632;23.198;2023-05-14T02:31:41;92419.28;;;11.67;100.00
34506;BME280;20748;42.632;23.198;2023-05-14T02:34:14;92417.34;;;11.73;100.00
34506;BME280;20748;42.632;23.198;2023-05-14T02:36:46;92423.66;;;11.72;100.00
34506;BME280;20748;42.632;23.198;2023-05-14T02:39:19;92435.47;;;11.69;100.00
34506;BME280;20748;42.632;23.198;2023-05-14T02:41:52;92438.00;;;11.60;100.00
34506;BME280;20748;42.632;23.198;2023-05-14T02:44:24;92436.47;;;11.59;100.00
34506;BME280;20748;42.632;23.198;2023-05-14T02:46:56;92442.94;;;11.62;100.00
34506;BME280;20748;42.632;23.198;2023-05-14T02:49:29;92446.22;;;11.67;100.00
34506;BME280;20748;42.632;23.198;2023-05-14T02:52:01;92444.47;;;11.63;100.00
34506;BME280;20748;42.632;23.198;2023-05-14T02:54:34;92432.06;;;11.68;100.00
34506;BME280;20748;42.632;23.198;2023-05-14T02:57:07;92437.00;;;11.70;100.00
34506;BME280;20748;42.632;23.198;2023-05-14T02:59:39;92429.75;;;11.67;100.00
34506;BME280;20748;42.632;23.198;2023-05-14T03:02:12;92415.75;;;11.49;100.00
34506;BME280;20748;42.632;23.198;2023-05-14T03:04:45;92414.69;;;11.50;100.00
34506;BME280;20748;42.632;23.198;2023-05-14T03:07:17;92397.94;;;11.51;100.00
34506;BME280;20748;42.632;23.198;2023-05-14T03:09:50;92395.44;;;11.46;100.00
34506;BME280;20748;42.632;23.198;2023-05-14T03:12:23;92398.28;;;11.35;100.00
34506;BME280;20748;42.632;23.198;2023-05-14T03:14:55;92398.56;;;11.34;100.00
34506;BME280;20748;42.632;23.198;2023-05-14T03:17:27;92393.34;;;11.34;100.00
34506;BME280;20748;42.632;23.198;2023-05-14T03:20:01;92393.44;;;11.28;100.00
34506;BME280;20748;42.632;23.198;2023-05-14T03:22:33;92392.16;;;11.26;100.00
34506;BME280;20748;42.632;23.198;2023-05-14T03:25:07;92390.25;;;11.04;100.00
34506;BME280;20748;42.632;23.198;2023-05-14T03:27:40;92395.47;;;10.90;100.00
34506;BME280;20748;42.632;23.198;2023-05-14T03:30:12;92402.44;;;10.94;100.00
34506;BME280;20748;42.632;23.198;2023-05-14T03:32:45;92412.22;;;11.03;100.00
34506;BME280;20748;42.632;23.198;2023-05-14T03:35:17;92402.63;;;10.98;100.00
34506;BME280;20748;42.632;23.198;2023-05-14T03:37:50;92400.19;;;11.01;100.00
34506;BME280;20748;42.632;23.198;2023-05-14T03:40:24;92403.41;;;10.98;100.00
34506;BME280;20748;42.632;23.198;2023-05-14T03:42:57;92404.16;;;10.99;100.00
34506;BME280;20748;42.632;23.198;2023-05-14T03:45:29;92414.81;;;11.03;100.00
34506;BME280;20748;42.632;23.198;2023-05-14T03:48:04;92413.25;;;11.01;100.00
34506;BME280;20748;42.632;23.198;2023-05-14T03:50:37;92400.78;;;10.70;100.00
34506;BME280;20748;42.632;23.198;2023-05-14T03:53:10;92420.31;;;10.87;100.00
34506;BME280;20748;42.632;23.198;2023-05-14T03:55:43;92413.84;;;10.98;100.00
34506;BME280;20748;42.632;23.198;2023-05-14T03:58:16;92415.88;;;11.01;100.00
34506;BME280;20748;42.632;23.198;2023-05-14T04:00:48;92415.88;;;11.01;100.00
34506;BME280;20748;42.632;23.198;2023-05-14T04:03:21;92415.78;;;11.07;100.00
34506;BME280;20748;42.632;23.198;2023-05-14T04:05:53;92420.63;;;10.99;100.00
34506;BME280;20748;42.632;23.198;2023-05-14T04:08:26;92421.38;;;10.86;100.00
34506;BME280;20748;42.632;23.198;2023-05-14T04:11:04;92421.50;;;10.95;100.00
34506;BME280;20748;42.632;23.198;2023-05-14T04:13:36;92427.97;;;10.97;100.00
34506;BME280;20748;42.632;23.198;2023-05-14T04:16:09;92430.28;;;10.99;100.00
34506;BME280;20748;42.632;23.198;2023-05-14T04:18:41;92432.50;;;11.06;100.00
34506;BME280;20748;42.632;23.198;2023-05-14T04:21:14;92433.38;;;11.01;100.00
34506;BME280;20748;42.632;23.198;2023-05-14T04:23:46;92440.81;;;11.08;100.00
34506;BME280;20748;42.632;23.198;2023-05-14T04:26:19;92453.50;;;11.14;100.00
34506;BME280;20748;42.632;23.198;2023-05-14T04:28:52;92451.59;;;11.20;100.00
34506;BME280;20748;42.632;23.198;2023-05-14T04:31:24;92458.81;;;11.23;100.00
34506;BME280;20748;42.632;23.198;2023-05-14T04:33:56;92446.03;;;11.22;100.00
34506;BME280;20748;42.632;23.198;2023-05-14T04:36:29;92453.50;;;11.28;100.00
34506;BME280;20748;42.632;23.198;2023-05-14T04:39:02;92460.97;;;11.21;100.00
34506;BME280;20748;42.632;23.198;2023-05-14T04:41:35;92460.56;;;11.28;100.00
34506;BME280;20748;42.632;23.198;2023-05-14T04:44:07;92469.75;;;11.25;100.00
34506;BME280;20748;42.632;23.198;2023-05-14T04:46:40;92473.31;;;11.15;100.00
34506;BME280;20748;42.632;23.198;2023-05-14T04:49:12;92480.88;;;11.17;100.00
34506;BME280;20748;42.632;23.198;2023-05-14T04:51:44;92486.28;;;11.21;100.00
34506;BME280;20748;42.632;23.198;2023-05-14T04:54:16;92494.22;;;11.30;100.00
34506;BME280;20748;42.632;23.198;2023-05-14T04:56:50;92498.69;;;11.29;100.00
34506;BME280;20748;42.632;23.198;2023-05-14T04:59:22;92504.38;;;11.17;100.00
34506;BME280;20748;42.632;23.198;2023-05-14T05:01:54;92513.28;;;11.16;100.00
34506;BME280;20748;42.632;23.198;2023-05-14T05:04:27;92514.44;;;11.10;100.00
34506;BME280;20748;42.632;23.198;2023-05-14T05:06:59;92508.44;;;11.09;100.00
34506;BME280;20748;42.632;23.198;2023-05-14T05:09:32;92513.38;;;11.11;100.00
34506;BME280;20748;42.632;23.198;2023-05-14T05:12:06;92516.97;;;11.15;100.00
34506;BME280;20748;42.632;23.198;2023-05-14T05:14:38;92505.56;;;11.25;100.00
34506;BME280;20748;42.632;23.198;2023-05-14T05:17:10;92501.09;;;11.25;100.00
34506;BME280;20748;42.632;23.198;2023-05-14T05:19:43;92514.66;;;11.27;100.00
34506;BME280;20748;42.632;23.198;2023-05-14T05:22:16;92513.47;;;11.20;100.00
34506;BME280;20748;42.632;23.198;2023-05-14T05:24:48;92513.28;;;11.16;100.00
34506;BME280;20748;42.632;23.198;2023-05-14T05:27:22;92512.41;;;11.21;100.00
34506;BME280;20748;42.632;23.198;2023-05-14T05:29:54;92509.59;;;11.17;100.00
34506;BME280;20748;42.632;23.198;2023-05-14T05:32:26;92518.31;;;11.12;100.00
34506;BME280;20748;42.632;23.198;2023-05-14T05:34:59;92520.63;;;11.14;100.00
34506;BME280;20748;42.632;23.198;2023-05-14T05:37:32;92513.00;;;11.18;100.00
34506;BME280;20748;42.632;23.198;2023-05-14T05:40:06;92515.09;;;11.15;100.00
34506;BME280;20748;42.632;23.198;2023-05-14T05:42:40;92523.81;;;11.11;100.00
34506;BME280;20748;42.632;23.198;2023-05-14T05:45:13;92530.50;;;11.17;100.00
34506;BME280;20748;42.632;23.198;2023-05-14T05:47:45;92530.38;;;11.08;100.00
34506;BME280;20748;42.632;23.198;2023-05-14T05:50:20;92528.13;;;11.01;100.00
34506;BME280;20748;42.632;23.198;2023-05-14T05:52:53;92529.28;;;10.95;100.00
34506;BME280;20748;42.632;23.198;2023-05-14T05:55:25;92518.03;;;10.81;100.00
34506;BME280;20748;42.632;23.198;2023-05-14T05:57:58;92511.63;;;10.73;100.00
34506;BME280;20748;42.632;23.198;2023-05-14T06:00:31;92513.19;;;10.74;100.00
34506;BME280;20748;42.632;23.198;2023-05-14T06:03:03;92510.84;;;10.72;100.00
34506;BME280;20748;42.632;23.198;2023-05-14T06:05:36;92519.47;;;10.73;100.00
34506;BME280;20748;42.632;23.198;2023-05-14T06:08:08;92512.44;;;10.73;100.00
34506;BME280;20748;42.632;23.198;2023-05-14T06:10:40;92514.84;;;10.70;100.00
34506;BME280;20748;42.632;23.198;2023-05-14T06:13:13;92507.38;;;10.63;100.00
34506;BME280;20748;42.632;23.198;2023-05-14T06:15:46;92496.34;;;10.66;100.00
34506;BME280;20748;42.632;23.198;2023-05-14T06:18:18;92487.47;;;10.67;100.00
34506;BME280;20748;42.632;23.198;2023-05-14T06:20:50;92486.31;;;10.73;100.00
34506;BME280;20748;42.632;23.198;2023-05-14T06:23:23;92490.16;;;10.62;100.00
34506;BME280;20748;42.632;23.198;2023-05-14T06:25:55;92497.00;;;10.39;100.00
34506;BME280;20748;42.632;23.198;2023-05-14T06:28:28;92503.56;;;10.36;100.00
34506;BME280;20748;42.632;23.198;2023-05-14T06:31:00;92514.44;;;10.24;100.00
34506;BME280;20748;42.632;23.198;2023-05-14T06:33:33;92510.97;;;10.10;100.00
34506;BME280;20748;42.632;23.198;2023-05-14T06:36:06;92507.66;;;10.04;100.00
34506;BME280;20748;42.632;23.198;2023-05-14T06:38:39;92522.50;;;10.03;100.00
34506;BME280;20748;42.632;23.198;2023-05-14T06:41:11;92520.41;;;9.86;100.00
34506;BME280;20748;42.632;23.198;2023-05-14T06:43:44;92514.72;;;9.60;100.00
34506;BME280;20748;42.632;23.198;2023-05-14T06:46:16;92501.38;;;9.66;100.00
34506;BME280;20748;42.632;23.198;2023-05-14T06:48:49;92505.47;;;9.48;100.00
34506;BME280;20748;42.632;23.198;2023-05-14T06:51:21;92487.50;;;9.47;100.00
34506;BME280;20748;42.632;23.198;2023-05-14T06:53:54;92491.34;;;9.54;100.00
34506;BME280;20748;42.632;23.198;2023-05-14T06:56:26;92472.75;;;9.61;100.00
34506;BME280;20748;42.632;23.198;2023-05-14T06:58:59;92475.53;;;9.46;100.00
34506;BME280;20748;42.632;23.198;2023-05-14T07:01:32;92487.50;;;9.47;100.00
34506;BME280;20748;42.632;23.198;2023-05-14T07:04:04;92483.03;;;9.52;100.00
34506;BME280;20748;42.632;23.198;2023-05-14T07:06:37;92486.44;;;9.48;100.00
34506;BME280;20748;42.632;23.198;2023-05-14T07:09:09;92493.31;;;9.63;100.00
34506;BME280;20748;42.632;23.198;2023-05-14T07:11:41;92505.78;;;9.42;100.00
34506;BME280;20748;42.632;23.198;2023-05-14T07:14:14;92524.75;;;9.47;100.00
34506;BME280;20748;42.632;23.198;2023-05-14T07:16:47;92544.75;;;9.52;100.00
34506;BME280;20748;42.632;23.198;2023-05-14T07:19:20;92535.94;;;9.48;100.00
34506;BME280;20748;42.632;23.198;2023-05-14T07:21:53;92535.28;;;9.37;100.00
34506;BME280;20748;42.632;23.198;2023-05-14T07:24:27;92540.34;;;9.52;100.00
34506;BME280;20748;42.632;23.198;2023-05-14T07:27:00;92538.94;;;9.60;100.00
34506;BME280;20748;42.632;23.198;2023-05-14T07:29:33;92534.13;;;9.73;100.00
34506;BME280;20748;42.632;23.198;2023-05-14T07:32:05;92525.72;;;9.76;100.00
34506;BME280;20748;42.632;23.198;2023-05-14T07:34:38;92519.59;;;9.86;100.00
34506;BME280;20748;42.632;23.198;2023-05-14T07:37:10;92526.84;;;9.70;100.00
34506;BME280;20748;42.632;23.198;2023-05-14T07:39:42;92527.00;;;9.78;100.00
34506;BME280;20748;42.632;23.198;2023-05-14T07:42:15;92528.59;;;9.74;100.00
34506;BME280;20748;42.632;23.198;2023-05-14T07:45:04;92537.75;;;9.72;100.00
34506;BME280;20748;42.632;23.198;2023-05-14T07:47:38;92542.41;;;9.75;100.00
34506;BME280;20748;42.632;23.198;2023-05-14T07:50:11;92540.34;;;9.72;100.00
34506;BME280;20748;42.632;23.198;2023-05-14T07:52:44;92545.31;;;9.73;100.00
34506;BME280;20748;42.632;23.198;2023-05-14T07:55:16;92550.50;;;9.73;100.00
34506;BME280;20748;42.632;23.198;2023-05-14T07:57:48;92551.94;;;9.85;100.00
34506;BME280;20748;42.632;23.198;2023-05-14T08:00:21;92546.66;;;9.90;100.00
34506;BME280;20748;42.632;23.198;2023-05-14T08:02:54;92538.31;;;9.93;100.00
34506;BME280;20748;42.632;23.198;2023-05-14T08:05:27;92520.88;;;9.88;100.00
34506;BME280;20748;42.632;23.198;2023-05-14T08:07:59;92518.28;;;9.88;100.00
34506;BME280;20748;42.632;23.198;2023-05-14T08:10:32;92514.34;;;9.91;100.00
34506;BME280;20748;42.632;23.198;2023-05-14T08:13:04;92513.13;;;9.83;100.00
34506;BME280;20748;42.632;23.198;2023-05-14T08:15:37;92511.44;;;9.73;100.00
34506;BME280;20748;42.632;23.198;2023-05-14T08:18:09;92499.09;;;9.60;100.00
34506;BME280;20748;42.632;23.198;2023-05-14T08:20:42;92505.69;;;9.52;100.00
34506;BME280;20748;42.632;23.198;2023-05-14T08:23:14;92500.59;;;9.42;100.00
34506;BME280;20748;42.632;23.198;2023-05-14T08:25:46;92504.88;;;9.32;100.00
34506;BME280;20748;42.632;23.198;2023-05-14T08:28:18;92501.75;;;9.30;100.00
34506;BME280;20748;42.632;23.198;2023-05-14T08:30:51;92502.59;;;9.25;100.00
34506;BME280;20748;42.632;23.198;2023-05-14T08:33:24;92504.44;;;9.25;100.00
34506;BME280;20748;42.632;23.198;2023-05-14T08:35:56;92490.94;;;9.18;100.00
34506;BME280;20748;42.632;23.198;2023-05-14T08:38:31;92492.66;;;9.27;100.00
34506;BME280;20748;42.632;23.198;2023-05-14T08:41:04;92490.56;;;9.30;100.00
34506;BME280;20748;42.632;23.198;2023-05-14T08:43:43;92481.22;;;9.29;100.00
34506;BME280;20748;42.632;23.198;2023-05-14T08:46:16;92496.31;;;9.26;100.00
34506;BME280;20748;42.632;23.198;2023-05-14T08:48:59;92500.63;;;9.36;100.00
34506;BME280;20748;42.632;23.198;2023-05-14T08:51:35;92503.41;;;9.45;100.00
34506;BME280;20748;42.632;23.198;2023-05-14T08:54:07;92502.66;;;9.45;100.00
34506;BME280;20748;42.632;23.198;2023-05-14T08:56:40;92493.06;;;9.40;100.00
34506;BME280;20748;42.632;23.198;2023-05-14T08:59:14;92504.94;;;9.51;100.00
34506;BME280;20748;42.632;23.198;2023-05-14T09:01:48;92503.44;;;9.64;100.00
34506;BME280;20748;42.632;23.198;2023-05-14T09:04:23;92492.13;;;9.55;100.00
34506;BME280;20748;42.632;23.198;2023-05-14T09:06:56;92494.31;;;9.67;100.00
34506;BME280;20748;42.632;23.198;2023-05-14T09:09:30;92487.88;;;9.59;100.00
34506;BME280;20748;42.632;23.198;2023-05-14T09:12:04;92489.56;;;9.50;100.00
34506;BME280;20748;42.632;23.198;2023-05-14T09:14:37;92481.84;;;9.64;100.00
34506;BME280;20748;42.632;23.198;2023-05-14T09:17:10;92488.09;;;9.63;100.00
34506;BME280;20748;42.632;23.198;2023-05-14T09:19:44;92505.84;;;9.61;100.00
34506;BME280;20748;42.632;23.198;2023-05-14T09:22:18;92502.06;;;9.48;100.00
34506;BME280;20748;42.632;23.198;2023-05-14T09:25:05;92491.44;;;9.44;100.00
34506;BME280;20748;42.632;23.198;2023-05-14T09:27:37;92483.34;;;9.46;100.00
34506;BME280;20748;42.632;23.198;2023-05-14T09:30:11;92485.53;;;9.38;100.00
34506;BME280;20748;42.632;23.198;2023-05-14T09:32:44;92497.31;;;9.55;100.00
34506;BME280;20748;42.632;23.198;2023-05-14T09:35:20;92474.84;;;9.40;100.00
34506;BME280;20748;42.632;23.198;2023-05-14T09:37:53;92478.03;;;9.56;100.00
34506;BME280;20748;42.632;23.198;2023-05-14T09:40:26;92477.41;;;9.64;100.00
34506;BME280;20748;42.632;23.198;2023-05-14T09:42:58;92477.13;;;9.66;100.00
34506;BME280;20748;42.632;23.198;2023-05-14T09:45:33;92462.75;;;9.69;100.00
34506;BME280;20748;42.632;23.198;2023-05-14T09:48:07;92464.59;;;9.68;100.00
34506;BME280;20748;42.632;23.198;2023-05-14T09:50:41;92461.06;;;9.59;100.00
34506;BME280;20748;42.632;23.198;2023-05-14T09:53:14;92457.88;;;9.62;100.00
34506;BME280;20748;42.632;23.198;2023-05-14T09:55:46;92456.19;;;9.52;100.00
34506;BME280;20748;42.632;23.198;2023-05-14T09:58:19;92454.06;;;9.54;100.00
34506;BME280;20748;42.632;23.198;2023-05-14T10:00:52;92447.78;;;9.36;100.00
34506;BME280;20748;42.632;23.198;2023-05-14T10:03:28;92446.16;;;9.21;100.00
34506;BME280;20748;42.632;23.198;2023-05-14T10:06:03;92443.53;;;9.21;100.00
34506;BME280;20748;42.632;23.198;2023-05-14T10:08:40;92445.41;;;9.15;100.00
34506;BME280;20748;42.632;23.198;2023-05-14T10:11:18;92420.28;;;9.05;100.00
34506;BME280;20748;42.632;23.198;2023-05-14T10:13:54;92416.34;;;9.08;100.00
34506;BME280;20748;42.632;23.198;2023-05-14T10:16:32;92415.63;;;9.02;100.00
34506;BME280;20748;42.632;23.198;2023-05-14T10:19:09;92427.66;;;8.98;100.00
34506;BME280;20748;42.632;23.198;2023-05-14T10:21:44;92432.59;;;8.99;100.00
34506;BME280;20748;42.632;23.198;2023-05-14T10:24:17;92443.47;;;9.02;100.00
34506;BME280;20748;42.632;23.198;2023-05-14T10:26:50;92457.88;;;8.94;100.00
34506;BME280;20748;42.632;23.198;2023-05-14T10:29:31;92444.38;;;8.92;100.00
34506;BME280;20748;42.632;23.198;2023-05-14T10:32:05;92448.38;;;9.08;100.00
34506;BME280;20748;42.632;23.198;2023-05-14T10:34:39;92461.34;;;9.13;100.00
34506;BME280;20748;42.632;23.198;2023-05-14T10:37:14;92445.63;;;9.19;100.00
34506;BME280;20748;42.632;23.198;2023-05-14T10:39:48;92432.56;;;9.24;100.00
34506;BME280;20748;42.632;23.198;2023-05-14T10:42:22;92450.94;;;9.33;100.00
34506;BME280;20748;42.632;23.198;2023-05-14T10:44:56;92460.19;;;9.44;100.00
34506;BME280;20748;42.632;23.198;2023-05-14T10:47:30;92448.66;;;9.50;100.00
34506;BME280;20748;42.632;23.198;2023-05-14T10:50:05;92437.97;;;9.52;100.00
34506;BME280;20748;42.632;23.198;2023-05-14T10:52:40;92429.53;;;9.60;100.00
34506;BME280;20748;42.632;23.198;2023-05-14T10:55:14;92410.09;;;9.52;100.00
34506;BME280;20748;42.632;23.198;2023-05-14T10:57:48;92432.63;;;9.62;100.00
34506;BME280;20748;42.632;23.198;2023-05-14T11:00:24;92416.94;;;9.67;100.00
34506;BME280;20748;42.632;23.198;2023-05-14T11:02:59;92421.97;;;9.78;100.00
34506;BME280;20748;42.632;23.198;2023-05-14T11:05:33;92429.19;;;9.86;100.00
34506;BME280;20748;42.632;23.198;2023-05-14T11:08:07;92429.13;;;9.91;100.00
34506;BME280;20748;42.632;23.198;2023-05-14T11:10:41;92428.84;;;9.93;100.00
34506;BME280;20748;42.632;23.198;2023-05-14T11:13:14;92424.72;;;9.87;100.00
34506;BME280;20748;42.632;23.198;2023-05-14T11:15:47;92427.41;;;10.01;100.00
34506;BME280;20748;42.632;23.198;2023-05-14T11:18:26;92429.38;;;10.09;100.00
34506;BME280;20748;42.632;23.198;2023-05-14T11:21:00;92438.47;;;9.92;100.00
34506;BME280;20748;42.632;23.198;2023-05-14T11:23:32;92434.66;;;9.85;100.00
34506;BME280;20748;42.632;23.198;2023-05-14T11:26:06;92437.72;;;9.73;100.00
34506;BME280;20748;42.632;23.198;2023-05-14T11:28:38;92433.47;;;9.77;100.00
34506;BME280;20748;42.632;23.198;2023-05-14T11:31:10;92436.00;;;9.82;100.00
34506;BME280;20748;42.632;23.198;2023-05-14T11:33:43;92439.88;;;9.85;100.00
34506;BME280;20748;42.632;23.198;2023-05-14T11:36:16;92436.94;;;9.91;100.00
34506;BME280;20748;42.632;23.198;2023-05-14T11:38:48;92430.25;;;9.85;100.00
34506;BME280;20748;42.632;23.198;2023-05-14T11:41:22;92420.22;;;9.92;100.00
34506;BME280;20748;42.632;23.198;2023-05-14T11:43:54;92404.00;;;9.96;100.00
34506;BME280;20748;42.632;23.198;2023-05-14T11:46:27;92407.25;;;10.06;100.00
34506;BME280;20748;42.632;23.198;2023-05-14T11:49:03;92416.22;;;10.00;100.00
34506;BME280;20748;42.632;23.198;2023-05-14T11:51:36;92410.34;;;10.08;100.00
34506;BME280;20748;42.632;23.198;2023-05-14T11:54:08;92402.53;;;10.08;100.00
34506;BME280;20748;42.632;23.198;2023-05-14T11:56:40;92400.00;;;10.03;100.00
34506;BME280;20748;42.632;23.198;2023-05-14T11:59:13;92401.13;;;9.97;100.00
34506;BME280;20748;42.632;23.198;2023-05-14T12:01:45;92393.59;;;9.96;100.00
34506;BME280;20748;42.632;23.198;2023-05-14T12:04:19;92389.81;;;9.88;100.00
34506;BME280;20748;42.632;23.198;2023-05-14T12:06:56;92390.44;;;9.79;100.00
34506;BME280;20748;42.632;23.198;2023-05-14T12:09:28;92380.72;;;9.85;100.00
34506;BME280;20748;42.632;23.198;2023-05-14T12:12:07;92371.91;;;9.81;100.00
34506;BME280;20748;42.632;23.198;2023-05-14T12:14:41;92361.38;;;9.72;100.00
34506;BME280;20748;42.632;23.198;2023-05-14T12:17:15;92357.53;;;9.84;100.00
34506;BME280;20748;42.632;23.198;2023-05-14T12:19:50;92355.94;;;9.88;100.00
34506;BME280;20748;42.632;23.198;2023-05-14T12:22:24;92350.66;;;9.93;100.00
34506;BME280;20748;42.632;23.198;2023-05-14T12:24:57;92342.31;;;9.91;100.00
34506;BME280;20748;42.632;23.198;2023-05-14T12:27:30;92355.28;;;9.96;100.00
34506;BME280;20748;42.632;23.198;2023-05-14T12:30:04;92346.34;;;9.83;100.00
34506;BME280;20748;42.632;23.198;2023-05-14T12:32:53;92357.06;;;9.82;100.00
34506;BME280;20748;42.632;23.198;2023-05-14T12:35:25;92355.28;;;9.77;100.00
34506;BME280;20748;42.632;23.198;2023-05-14T12:37:59;92349.25;;;9.82;100.00
34506;BME280;20748;42.632;23.198;2023-05-14T12:40:31;92337.06;;;9.77;100.00
34506;BME280;20748;42.632;23.198;2023-05-14T12:43:04;92334.75;;;9.75;100.00
34506;BME280;20748;42.632;23.198;2023-05-14T12:45:36;92326.50;;;9.68;100.00
34506;BME280;20748;42.632;23.198;2023-05-14T12:48:08;92332.34;;;9.79;100.00
34506;BME280;20748;42.632;23.198;2023-05-14T12:50:41;92343.94;;;9.87;100.00
34506;BME280;20748;42.632;23.198;2023-05-14T12:53:14;92341.91;;;9.84;100.00
34506;BME280;20748;42.632;23.198;2023-05-14T12:55:47;92346.25;;;9.88;100.00
34506;BME280;20748;42.632;23.198;2023-05-14T12:58:20;92345.00;;;9.86;100.00
34506;BME280;20748;42.632;23.198;2023-05-14T13:00:52;92352.88;;;9.80;100.00
34506;BME280;20748;42.632;23.198;2023-05-14T13:03:25;92351.56;;;9.83;100.00
34506;BME280;20748;42.632;23.198;2023-05-14T13:05:57;92341.25;;;9.92;100.00
34506;BME280;20748;42.632;23.198;2023-05-14T13:08:30;92330.06;;;9.91;100.00
34506;BME280;20748;42.632;23.198;2023-05-14T13:11:03;92325.13;;;9.90;100.00
34506;BME280;20748;42.632;23.198;2023-05-14T13:13:35;92329.59;;;10.03;100.00
34506;BME280;20748;42.632;23.198;2023-05-14T13:16:08;92319.97;;;10.04;100.00